createdAt,value
2018-07-17T00:00:37.474Z,99.90
2018-07-17T00:03:06.677Z,99.90
2018-07-17T00:05:35.621Z,99.90
2018-07-17T00:08:04.676Z,99.90
2018-07-17T00:10:33.643Z,99.90
2018-07-17T00:13:02.519Z,99.90
2018-07-17T00:15:31.261Z,99.90
2018-07-17T00:18:00.109Z,99.90
2018-07-17T00:20:29.125Z,99.90
2018-07-17T00:22:57.937Z,99.90
2018-07-17T00:25:26.925Z,99.90
2018-07-17T00:27:55.835Z,99.90
2018-07-17T00:30:24.815Z,99.90
2018-07-17T00:32:53.805Z,99.90
2018-07-17T00:35:22.799Z,99.90
2018-07-17T00:37:51.831Z,99.90
2018-07-17T00:40:20.879Z,99.90
2018-07-17T00:42:49.714Z,99.90
2018-07-17T00:45:18.473Z,99.90
2018-07-17T00:47:47.263Z,99.90
2018-07-17T00:50:16.136Z,99.90
2018-07-17T00:52:44.843Z,99.90
2018-07-17T00:55:13.666Z,99.90
2018-07-17T00:57:42.795Z,99.90
2018-07-17T01:00:11.598Z,99.90
2018-07-17T01:02:46.406Z,99.90
2018-07-17T01:05:20.547Z,99.90
2018-07-17T01:07:54.512Z,99.90
2018-07-17T01:10:28.904Z,99.90
2018-07-17T01:12:56.774Z,99.90
2018-07-17T01:15:33.428Z,99.90
2018-07-17T01:18:02.338Z,99.90
2018-07-17T01:20:31.435Z,99.90
2018-07-17T01:23:00.521Z,99.90
2018-07-17T01:25:29.342Z,99.90
2018-07-17T01:27:58.182Z,99.90
2018-07-17T01:30:27.123Z,99.90
2018-07-17T01:32:55.890Z,99.90
2018-07-17T01:35:24.674Z,99.90
2018-07-17T01:37:53.308Z,99.90
2018-07-17T01:40:22.042Z,99.90
2018-07-17T01:42:50.839Z,99.90
2018-07-17T01:47:47.444Z,99.90
2018-07-17T01:50:16.075Z,99.90
2018-07-17T01:57:40.928Z,99.90
2018-07-17T02:00:09.459Z,99.90
2018-07-17T02:02:37.984Z,99.90
2018-07-17T02:05:06.670Z,99.90
2018-07-17T02:07:35.171Z,99.90
2018-07-17T02:10:03.786Z,99.90
2018-07-17T02:12:32.255Z,99.90
2018-07-17T02:15:01.044Z,99.90
2018-07-17T02:17:29.494Z,99.90
2018-07-17T02:19:57.927Z,99.90
2018-07-17T02:22:26.994Z,99.90
2018-07-17T02:24:55.518Z,99.90
2018-07-17T02:27:24.022Z,99.90
2018-07-17T02:29:52.483Z,99.90
2018-07-17T02:37:17.248Z,99.90
2018-07-17T02:39:45.826Z,99.90
2018-07-17T02:42:14.341Z,99.90
2018-07-17T02:44:42.950Z,99.90
2018-07-17T02:47:11.841Z,99.90
2018-07-17T02:49:40.370Z,99.90
2018-07-17T02:52:08.875Z,99.90
2018-07-17T02:54:37.391Z,99.90
2018-07-17T02:57:05.850Z,99.90
2018-07-17T02:59:34.454Z,99.90
2018-07-17T03:02:03.651Z,99.90
2018-07-17T03:04:32.170Z,99.90
2018-07-17T03:07:00.646Z,99.90
2018-07-17T03:09:29.152Z,99.90
2018-07-17T03:11:57.726Z,99.90
2018-07-17T03:14:26.252Z,99.90
2018-07-17T03:16:54.766Z,99.90
2018-07-17T03:19:23.314Z,99.90
2018-07-17T03:21:51.900Z,99.90
2018-07-17T03:24:20.352Z,99.90
2018-07-17T03:26:48.884Z,99.90
2018-07-17T03:29:17.406Z,99.90
2018-07-17T03:31:45.898Z,99.90
2018-07-17T03:34:14.384Z,99.90
2018-07-17T03:36:42.944Z,99.90
2018-07-17T03:39:11.418Z,99.90
2018-07-17T03:41:39.920Z,99.90
2018-07-17T03:44:08.394Z,99.90
2018-07-17T03:46:36.970Z,99.90
2018-07-17T03:49:05.639Z,99.90
2018-07-17T03:51:34.172Z,99.90
2018-07-17T03:54:02.720Z,99.90
2018-07-17T03:56:31.406Z,99.90
2018-07-17T03:58:59.894Z,99.90
2018-07-17T04:03:57.304Z,99.90
2018-07-17T04:06:25.801Z,99.90
2018-07-17T04:08:54.281Z,99.90
2018-07-17T04:11:22.776Z,99.90
2018-07-17T04:13:51.316Z,99.90
2018-07-17T04:16:19.832Z,99.90
2018-07-17T04:18:48.345Z,99.90
2018-07-17T04:21:22.457Z,99.90
2018-07-17T04:23:51.027Z,99.90
2018-07-17T04:26:19.548Z,99.90
2018-07-17T04:28:48.047Z,99.90
2018-07-17T04:31:16.887Z,99.90
2018-07-17T04:33:45.402Z,99.90
2018-07-17T04:36:13.895Z,99.90
2018-07-17T04:38:42.521Z,99.90
2018-07-17T04:41:11.181Z,99.90
2018-07-17T04:43:39.683Z,99.90
2018-07-17T04:46:08.229Z,99.90
2018-07-17T04:48:36.764Z,99.90
2018-07-17T04:51:05.327Z,99.90
2018-07-17T04:53:33.827Z,99.90
2018-07-17T04:56:02.443Z,99.90
2018-07-17T04:58:30.965Z,99.90
2018-07-17T05:00:59.549Z,99.90
2018-07-17T05:03:28.061Z,99.90
2018-07-17T05:05:56.659Z,99.90
2018-07-17T05:08:25.620Z,99.90
2018-07-17T05:10:54.584Z,99.90
2018-07-17T05:13:23.302Z,99.90
2018-07-17T05:15:52.004Z,99.90
2018-07-17T05:18:20.815Z,99.90
2018-07-17T05:20:50.093Z,99.90
2018-07-17T05:23:19.326Z,99.90
2018-07-17T05:25:48.152Z,99.90
2018-07-17T05:28:21.016Z,99.90
2018-07-17T05:30:49.670Z,99.90
2018-07-17T05:33:18.148Z,99.90
2018-07-17T05:35:46.645Z,99.90
2018-07-17T05:38:15.362Z,99.90
2018-07-17T05:40:43.844Z,99.90
2018-07-17T05:43:12.358Z,99.90
2018-07-17T05:45:40.848Z,99.90
2018-07-17T05:48:10.468Z,99.90
2018-07-17T05:50:38.994Z,99.90
2018-07-17T05:53:07.476Z,99.90
2018-07-17T05:55:35.994Z,99.90
2018-07-17T05:58:04.533Z,99.90
2018-07-17T06:00:33.035Z,99.90
2018-07-17T06:03:01.678Z,99.90
2018-07-17T06:05:30.292Z,99.90
2018-07-17T06:07:58.926Z,99.90
2018-07-17T06:10:28.304Z,99.90
2018-07-17T06:12:57.056Z,99.90
2018-07-17T06:15:25.758Z,99.90
2018-07-17T06:27:05.499Z,99.90
2018-07-17T06:29:34.700Z,99.90
2018-07-17T06:32:04.163Z,99.90
2018-07-17T06:34:33.238Z,99.90
2018-07-17T06:37:02.332Z,99.90
2018-07-17T06:39:31.311Z,99.90
2018-07-17T06:42:02.190Z,99.90
2018-07-17T06:44:30.909Z,99.90
2018-07-17T06:46:59.439Z,99.90
2018-07-17T06:49:28.052Z,99.90
2018-07-17T06:51:56.969Z,99.90
2018-07-17T06:54:25.566Z,99.90
2018-07-17T06:56:54.753Z,99.90
2018-07-17T06:59:23.319Z,99.90
2018-07-17T07:01:51.873Z,99.90
2018-07-17T07:04:24.629Z,99.90
2018-07-17T07:06:53.423Z,99.90
2018-07-17T07:09:22.204Z,99.90
2018-07-17T07:11:50.822Z,99.90
2018-07-17T07:14:19.426Z,99.90
2018-07-17T07:16:47.994Z,99.90
2018-07-17T07:19:16.588Z,97.50
2018-07-17T07:24:13.676Z,82.30
2018-07-17T07:26:42.364Z,74.80
2018-07-17T07:29:10.916Z,70.30
2018-07-17T07:31:39.478Z,66.90
2018-07-17T07:34:08.066Z,65.60
2018-07-17T07:36:36.600Z,65.50
2018-07-17T07:39:07.751Z,63.20
2018-07-17T07:41:36.497Z,59.40
2018-07-17T07:44:05.480Z,58.80
2018-07-17T07:46:33.991Z,57.90
2018-07-17T07:49:02.558Z,56.20
2018-07-17T07:51:35.627Z,55.40
2018-07-17T07:54:04.347Z,55.00
2018-07-17T07:56:32.863Z,55.90
2018-07-17T07:59:01.382Z,55.10
2018-07-17T08:01:29.953Z,53.70
2018-07-17T08:03:58.542Z,52.90
2018-07-17T08:06:27.154Z,51.70
2018-07-17T08:08:55.853Z,50.30
2018-07-17T08:11:24.422Z,50.10
2018-07-17T08:13:53.020Z,48.90
2018-07-17T08:16:21.704Z,49.40
2018-07-17T08:18:50.235Z,49.10
2018-07-17T08:21:18.987Z,49.00
2018-07-17T08:23:49.656Z,48.90
2018-07-17T08:26:18.612Z,47.10
2018-07-17T08:28:47.203Z,46.20
2018-07-17T08:31:15.756Z,45.60
2018-07-17T08:33:44.343Z,45.50
2018-07-17T08:38:58.625Z,44.30
2018-07-17T08:41:27.197Z,42.90
2018-07-17T08:43:55.771Z,43.20
2018-07-17T08:46:24.360Z,42.60
2018-07-17T08:48:53.077Z,41.80
2018-07-17T08:51:21.643Z,41.00
2018-07-17T08:53:50.212Z,40.70
2018-07-17T08:56:19.121Z,34.80
2018-07-17T08:58:47.682Z,32.10
2018-07-17T09:01:16.262Z,31.00
2018-07-17T09:03:44.856Z,30.20
2018-07-17T09:06:13.564Z,29.50
2018-07-17T09:08:42.141Z,28.60
2018-07-17T09:11:10.705Z,29.20
2018-07-17T09:13:39.287Z,28.40
2018-07-17T09:16:09.522Z,28.00
2018-07-17T10:25:59.072Z,20.40
2018-07-17T10:28:28.903Z,20.00
2018-07-17T10:30:57.481Z,19.60
2018-07-17T10:33:26.064Z,20.40
2018-07-17T10:35:54.605Z,20.00
2018-07-17T10:38:23.178Z,19.70
2018-07-17T10:40:51.699Z,19.60
2018-07-17T10:43:20.852Z,19.70
2018-07-17T10:45:49.448Z,19.40
2018-07-17T10:48:17.968Z,19.80
2018-07-17T10:50:46.583Z,20.20
2018-07-17T10:53:15.039Z,20.40
2018-07-17T10:55:43.509Z,19.50
2018-07-17T10:58:12.039Z,19.90
2018-07-17T11:00:40.829Z,20.40
2018-07-17T11:03:09.513Z,20.80
2018-07-17T11:05:38.077Z,20.60
2018-07-17T11:08:06.756Z,20.60
2018-07-17T11:10:35.330Z,20.70
2018-07-17T11:13:03.824Z,20.90
2018-07-17T11:18:00.660Z,21.20
2018-07-17T11:20:29.209Z,21.30
2018-07-17T11:22:57.693Z,21.40
2018-07-17T11:25:26.149Z,21.20
2018-07-17T11:27:54.620Z,20.70
2018-07-17T11:32:51.761Z,20.50
2018-07-17T11:35:20.246Z,21.30
2018-07-17T11:37:48.895Z,21.60
2018-07-17T11:40:17.643Z,21.10
2018-07-17T11:42:46.192Z,20.60
2018-07-17T11:45:14.664Z,19.60
2018-07-17T11:47:43.216Z,19.60
2018-07-17T11:50:11.632Z,20.20
2018-07-17T11:52:40.168Z,21.20
2018-07-17T11:55:08.719Z,22.20
2018-07-17T11:57:37.230Z,23.00
2018-07-17T12:00:06.453Z,23.60
2018-07-17T12:02:35.879Z,23.20
2018-07-17T12:05:04.551Z,23.70
2018-07-17T12:07:33.014Z,24.70
2018-07-17T12:10:01.495Z,25.20
2018-07-17T12:12:30.044Z,26.30
2018-07-17T12:15:02.492Z,27.30
2018-07-17T12:17:31.040Z,27.70
2018-07-17T12:19:59.662Z,27.60
2018-07-17T12:22:28.291Z,27.40
2018-07-17T12:24:56.814Z,27.60
2018-07-17T12:27:25.310Z,28.10
2018-07-17T12:29:53.763Z,28.20
2018-07-17T12:32:22.431Z,28.70
2018-07-17T12:34:51.060Z,29.40
2018-07-17T12:37:19.594Z,29.30
2018-07-17T12:39:48.109Z,29.80
2018-07-17T12:42:16.747Z,30.10
2018-07-17T12:44:45.311Z,31.10
2018-07-17T12:47:13.890Z,31.60
2018-07-17T12:49:42.399Z,32.60
2018-07-17T12:52:10.916Z,32.40
2018-07-17T12:54:39.373Z,31.20
2018-07-17T12:57:08.461Z,32.10
2018-07-17T12:59:37.031Z,32.60
2018-07-17T13:02:06.092Z,33.20
2018-07-17T13:04:34.714Z,35.00
2018-07-17T13:07:03.196Z,35.70
2018-07-17T13:09:31.710Z,35.20
2018-07-17T13:12:00.862Z,34.90
2018-07-17T13:14:29.374Z,34.40
2018-07-17T13:16:57.975Z,34.30
2018-07-17T13:19:26.465Z,33.60
2018-07-17T13:21:55.122Z,32.80
2018-07-17T13:24:23.599Z,31.60
2018-07-17T13:26:52.162Z,31.00
2018-07-17T13:29:20.768Z,29.70
2018-07-17T13:31:49.569Z,28.70
2018-07-17T13:34:18.165Z,27.10
2018-07-17T13:36:46.736Z,26.20
2018-07-17T13:39:15.300Z,24.70
2018-07-17T13:41:50.654Z,25.60
2018-07-17T13:44:19.383Z,27.40
2018-07-17T13:46:48.770Z,28.70
2018-07-17T13:49:19.604Z,29.20
2018-07-17T13:51:48.309Z,28.60
2018-07-17T13:54:17.225Z,28.50
2018-07-17T13:56:46.115Z,28.90
2018-07-17T13:59:15.231Z,30.50
2018-07-17T14:01:46.945Z,31.00
2018-07-17T14:04:18.986Z,30.40
2018-07-17T14:06:52.177Z,31.00
2018-07-17T14:09:25.273Z,29.80
2018-07-17T14:11:55.141Z,28.40
2018-07-17T14:14:26.746Z,28.10
2018-07-17T14:17:00.459Z,27.60
2018-07-17T14:19:29.069Z,27.00
2018-07-17T14:21:58.690Z,27.40
2018-07-17T14:24:27.329Z,27.00
2018-07-17T14:26:56.201Z,26.80
2018-07-17T14:29:26.531Z,27.90
2018-07-17T14:31:56.244Z,27.90
2018-07-17T14:34:24.771Z,27.70
2018-07-17T14:36:53.361Z,27.30
2018-07-17T14:39:21.826Z,27.40
2018-07-17T14:44:18.648Z,27.80
2018-07-17T14:46:47.320Z,27.60
2018-07-17T14:49:15.884Z,27.80
2018-07-17T14:51:44.617Z,28.50
2018-07-17T14:54:13.147Z,28.80
2018-07-17T14:56:41.706Z,29.40
2018-07-17T15:01:39.548Z,29.30
2018-07-17T15:04:08.135Z,29.00
2018-07-17T15:06:37.113Z,29.70
2018-07-17T15:09:09.688Z,29.40
2018-07-17T15:11:39.122Z,29.90
2018-07-17T15:14:08.006Z,29.60
2018-07-17T15:16:36.684Z,29.60
2018-07-17T15:19:05.396Z,29.80
2018-07-17T15:21:33.941Z,29.60
2018-07-17T15:24:02.484Z,29.50
2018-07-17T15:26:31.316Z,29.50
2018-07-17T15:29:00.885Z,29.80
2018-07-17T15:31:29.687Z,30.30
2018-07-17T15:33:58.366Z,30.60
2018-07-17T15:36:27.181Z,31.00
2018-07-17T15:38:55.906Z,30.60
2018-07-17T15:41:24.496Z,31.00
2018-07-17T15:43:53.084Z,30.40
2018-07-17T15:46:21.590Z,31.60
2018-07-17T15:48:50.133Z,31.60
2018-07-17T15:51:18.741Z,31.90
2018-07-17T15:53:47.474Z,32.30
2018-07-17T15:56:16.064Z,32.70
2018-07-17T15:58:44.990Z,32.80
2018-07-17T16:01:13.949Z,33.30
2018-07-17T16:03:42.571Z,33.50
2018-07-17T16:06:11.437Z,33.70
2018-07-17T16:08:40.197Z,33.50
2018-07-17T16:11:08.758Z,33.70
2018-07-17T16:13:37.353Z,33.70
2018-07-17T16:16:06.763Z,33.50
2018-07-17T16:18:36.397Z,33.40
2018-07-17T16:21:05.272Z,33.40
2018-07-17T16:23:33.768Z,33.10
2018-07-17T16:26:02.376Z,32.70
2018-07-17T16:28:30.969Z,32.80
2018-07-17T16:30:59.484Z,33.20
2018-07-17T16:33:28.421Z,33.70
2018-07-17T16:35:57.113Z,33.60
2018-07-17T16:38:25.789Z,33.50
2018-07-17T16:40:54.271Z,33.90
2018-07-17T16:43:24.514Z,33.90
2018-07-17T16:45:53.118Z,34.00
2018-07-17T16:48:21.608Z,33.90
2018-07-17T16:50:50.131Z,34.10
2018-07-17T16:53:18.614Z,35.00
2018-07-17T16:55:47.046Z,34.70
2018-07-17T16:58:15.484Z,34.70
2018-07-17T17:00:43.930Z,34.90
2018-07-17T17:03:12.397Z,35.30
2018-07-17T17:05:40.842Z,35.50
2018-07-17T17:08:09.305Z,35.60
2018-07-17T17:10:37.756Z,35.70
2018-07-17T17:13:06.207Z,35.60
2018-07-17T17:15:35.077Z,35.70
2018-07-17T17:18:03.574Z,35.80
2018-07-17T17:20:32.080Z,35.90
2018-07-17T17:23:00.526Z,36.40
2018-07-17T17:25:29.037Z,36.30
2018-07-17T17:27:57.446Z,37.30
2018-07-17T17:30:25.936Z,37.10
2018-07-17T17:32:54.806Z,37.80
2018-07-17T17:35:23.322Z,37.90
2018-07-17T17:37:51.992Z,37.80
2018-07-17T17:40:20.603Z,37.50
2018-07-17T17:42:49.119Z,37.90
2018-07-17T17:45:17.625Z,38.30
2018-07-17T17:47:46.112Z,37.80
2018-07-17T17:50:14.745Z,37.80
2018-07-17T17:52:43.433Z,38.10
2018-07-17T17:55:12.067Z,38.40
2018-07-17T17:57:40.664Z,38.60
2018-07-17T18:00:09.221Z,39.40
2018-07-17T18:02:37.786Z,39.60
2018-07-17T18:05:06.365Z,40.00
2018-07-17T18:07:34.820Z,40.00
2018-07-17T18:10:03.300Z,40.00
2018-07-17T18:12:31.768Z,40.50
2018-07-17T18:15:00.254Z,40.30
2018-07-17T18:17:28.827Z,41.10
2018-07-17T18:19:57.328Z,40.30
2018-07-17T18:22:25.952Z,40.90
2018-07-17T18:24:54.541Z,41.00
2018-07-17T18:27:23.199Z,41.30
2018-07-17T18:29:51.722Z,41.50
2018-07-17T18:32:20.298Z,41.60
2018-07-17T18:34:48.867Z,42.00
2018-07-17T18:37:17.771Z,42.10
2018-07-17T18:39:46.304Z,42.40
2018-07-17T18:44:43.041Z,42.90
2018-07-17T18:47:11.884Z,43.40
2018-07-17T18:49:40.409Z,43.40
2018-07-17T18:52:09.045Z,43.90
2018-07-17T18:54:37.522Z,43.90
2018-07-17T18:57:06.053Z,44.20
2018-07-17T18:59:34.539Z,44.30
2018-07-17T19:02:03.086Z,44.50
2018-07-17T19:04:31.557Z,44.60
2018-07-17T19:07:00.305Z,44.90
2018-07-17T19:09:28.902Z,45.30
2018-07-17T19:11:57.816Z,45.80
2018-07-17T19:14:26.427Z,46.20
2018-07-17T19:16:54.950Z,46.10
2018-07-17T19:19:23.780Z,46.60
2018-07-17T19:21:52.887Z,47.20
2018-07-17T19:24:22.593Z,47.20
2018-07-17T19:26:52.135Z,47.60
2018-07-17T19:29:20.677Z,48.00
2018-07-17T19:31:49.210Z,48.50
2018-07-17T19:34:17.791Z,48.80
2018-07-17T19:36:46.600Z,49.20
2018-07-17T19:39:16.183Z,49.50
2018-07-17T19:41:44.720Z,49.80
2018-07-17T19:44:15.392Z,50.00
2018-07-17T19:46:43.906Z,50.40
2018-07-17T19:49:12.582Z,50.60
2018-07-17T19:51:42.178Z,50.90
2018-07-17T19:54:10.937Z,51.20
2018-07-17T19:56:39.481Z,51.70
2018-07-17T19:59:08.020Z,52.00
2018-07-17T20:01:37.119Z,52.20
2018-07-17T20:04:05.818Z,52.40
2018-07-17T20:06:34.376Z,52.80
2018-07-17T20:09:03.082Z,53.20
2018-07-17T20:11:53.632Z,53.50
2018-07-17T20:14:38.506Z,53.60
2018-07-17T20:17:16.589Z,54.20
2018-07-17T20:19:51.564Z,54.80
2018-07-17T20:32:15.270Z,58.60
2018-07-17T20:37:51.944Z,60.20
2018-07-17T20:40:35.322Z,61.20
2018-07-17T20:43:09.337Z,62.00
2018-07-17T20:45:45.595Z,62.70
2018-07-17T20:48:27.049Z,64.00
2018-07-17T20:51:05.859Z,65.70
2018-07-17T20:53:50.997Z,68.20
2018-07-17T21:02:25.635Z,76.90
2018-07-17T21:05:10.201Z,81.00
2018-07-17T21:13:12.750Z,86.50
2018-07-17T21:15:41.228Z,87.20
2018-07-17T21:20:37.919Z,90.20
2018-07-17T21:23:06.485Z,91.30
2018-07-17T21:25:35.115Z,92.20
2018-07-17T21:28:03.822Z,93.30
2018-07-17T21:30:32.341Z,93.90
2018-07-17T21:33:01.124Z,94.10
2018-07-17T21:35:30.564Z,94.70
2018-07-17T21:37:59.088Z,94.70
2018-07-17T21:40:27.601Z,95.40
2018-07-17T21:42:56.133Z,95.80
2018-07-17T21:45:24.734Z,96.80
2018-07-17T21:47:53.276Z,98.10
2018-07-17T21:50:21.835Z,98.90
2018-07-17T21:52:50.355Z,99.50
2018-07-17T21:55:19.201Z,99.70
2018-07-17T21:57:47.706Z,99.90
2018-07-17T22:00:16.305Z,99.90
2018-07-17T22:02:44.847Z,99.90
2018-07-17T22:05:14.244Z,99.90
2018-07-17T22:07:43.252Z,99.90
2018-07-17T22:10:11.840Z,99.90
2018-07-17T22:12:40.360Z,99.90
2018-07-17T22:15:08.958Z,99.90
2018-07-17T22:17:37.496Z,99.90
2018-07-17T22:20:06.038Z,99.90
2018-07-17T22:22:34.684Z,99.90
2018-07-17T22:25:03.200Z,99.90
2018-07-17T22:27:31.803Z,99.90
2018-07-17T22:30:00.335Z,99.90
2018-07-17T22:32:28.934Z,99.90
2018-07-17T22:34:57.498Z,99.90
2018-07-17T22:37:26.037Z,99.90
2018-07-17T22:40:05.980Z,99.90
2018-07-17T22:42:42.521Z,99.90
2018-07-17T22:45:53.824Z,99.90
2018-07-17T22:48:22.598Z,99.90
2018-07-17T22:50:51.767Z,99.90
2018-07-17T22:53:20.337Z,99.90
2018-07-17T22:55:49.040Z,99.90
2018-07-17T22:58:17.604Z,99.90
2018-07-17T23:00:46.202Z,99.90
2018-07-17T23:03:15.969Z,99.90
2018-07-17T23:05:44.687Z,99.90
2018-07-17T23:08:13.289Z,99.90
2018-07-17T23:10:41.845Z,99.90
2018-07-17T23:13:10.425Z,99.90
2018-07-17T23:15:43.138Z,99.90
2018-07-17T23:18:11.673Z,99.90
2018-07-17T23:23:09.100Z,99.90
2018-07-17T23:25:37.653Z,99.90
2018-07-17T23:28:06.286Z,99.90
2018-07-17T23:30:34.899Z,99.90
2018-07-17T23:33:03.679Z,99.90
2018-07-17T23:35:32.281Z,99.90
2018-07-17T23:38:00.768Z,99.90
2018-07-17T23:40:29.289Z,99.90
2018-07-17T23:42:57.887Z,99.90
2018-07-17T23:45:26.937Z,99.90
2018-07-17T23:47:56.671Z,99.90
2018-07-17T23:50:25.165Z,99.90
2018-07-17T23:52:53.799Z,99.90
2018-07-17T23:55:22.449Z,99.90
2018-07-17T23:57:50.963Z,99.90
